createdAt,value
2022-11-17T00:01:19.905Z,10.18
2022-11-17T00:03:50.598Z,12.13
2022-11-17T00:06:20.418Z,9.27
2022-11-17T00:08:47.914Z,10.40
2022-11-17T00:11:14.931Z,11.18
2022-11-17T00:14:00.283Z,8.32
2022-11-17T00:16:27.090Z,13.85
2022-11-17T00:19:12.329Z,15.60
2022-11-17T00:21:39.169Z,15.05
2022-11-17T00:24:06.376Z,14.77
2022-11-17T00:26:35.002Z,16.10
2022-11-17T00:29:07.325Z,11.23
2022-11-17T00:31:53.304Z,11.93
2022-11-17T00:34:22.576Z,16.15
2022-11-17T00:36:51.355Z,20.23
2022-11-17T00:39:21.068Z,12.82
2022-11-17T00:41:48.229Z,13.52
2022-11-17T00:44:15.423Z,7.00
2022-11-17T00:46:43.150Z,6.55
2022-11-17T00:49:10.967Z,4.97
2022-11-17T00:51:38.437Z,5.43
2022-11-17T00:54:06.076Z,8.18
2022-11-17T00:56:32.961Z,7.43
2022-11-17T00:59:00.118Z,12.63
2022-11-17T01:01:27.531Z,13.07
2022-11-17T01:04:03.199Z,10.55
2022-11-17T01:06:45.299Z,14.88
2022-11-17T01:09:14.851Z,9.70
2022-11-17T01:11:42.614Z,7.03
2022-11-17T01:14:14.200Z,12.63
2022-11-17T01:16:41.889Z,14.50
2022-11-17T01:19:10.832Z,9.40
2022-11-17T01:21:37.980Z,12.73
2022-11-17T01:24:05.149Z,9.00
2022-11-17T01:26:34.315Z,11.77
2022-11-17T01:29:02.129Z,10.38
2022-11-17T01:31:31.403Z,10.30
2022-11-17T01:33:58.727Z,9.27
2022-11-17T01:36:31.159Z,12.43
2022-11-17T01:38:57.925Z,11.32
2022-11-17T01:41:26.804Z,6.50
2022-11-17T01:43:57.759Z,15.25
2022-11-17T01:46:27.615Z,8.52
2022-11-17T01:49:01.944Z,9.32
2022-11-17T01:51:30.224Z,11.90
2022-11-17T01:53:57.300Z,11.55
2022-11-17T01:56:27.519Z,6.07
2022-11-17T01:59:05.959Z,17.45
2022-11-17T02:01:33.590Z,8.23
2022-11-17T02:04:00.882Z,12.13
2022-11-17T02:06:34.375Z,10.32
2022-11-17T02:09:02.614Z,7.07
2022-11-17T02:11:36.117Z,8.35
2022-11-17T02:14:05.210Z,3.75
2022-11-17T02:16:31.962Z,5.85
2022-11-17T02:18:58.793Z,5.22
2022-11-17T02:22:06.875Z,2.17
2022-11-17T02:24:51.691Z,6.57
2022-11-17T02:27:43.106Z,4.05
2022-11-17T02:30:12.764Z,4.32
2022-11-17T02:32:43.485Z,3.10
2022-11-17T02:35:28.771Z,1.73
2022-11-17T02:38:05.152Z,3.92
2022-11-17T02:40:34.888Z,1.95
2022-11-17T02:43:24.006Z,9.15
2022-11-17T02:46:12.014Z,6.25
2022-11-17T02:48:59.976Z,4.45
2022-11-17T02:51:26.897Z,11.13
2022-11-17T02:53:55.790Z,7.72
2022-11-17T02:56:22.762Z,10.60
2022-11-17T02:58:56.752Z,13.77
2022-11-17T03:01:32.649Z,14.13
2022-11-17T03:04:17.870Z,26.63
2022-11-17T03:06:56.453Z,20.13
2022-11-17T03:09:46.800Z,28.55
2022-11-17T03:12:23.661Z,24.63
2022-11-17T03:14:59.449Z,27.40
2022-11-17T03:17:48.127Z,29.60
2022-11-17T03:20:27.762Z,33.70
2022-11-17T03:23:01.384Z,32.05
2022-11-17T03:25:30.756Z,21.35
2022-11-17T03:27:59.775Z,20.98
2022-11-17T03:30:29.963Z,27.77
2022-11-17T03:33:05.293Z,25.33
2022-11-17T03:35:36.354Z,29.77
2022-11-17T03:38:11.197Z,22.55
2022-11-17T03:40:40.519Z,27.58
2022-11-17T03:43:08.432Z,28.00
2022-11-17T03:45:38.716Z,32.20
2022-11-17T03:48:08.437Z,28.45
2022-11-17T03:50:38.784Z,33.63
2022-11-17T03:53:06.339Z,24.02
2022-11-17T03:55:58.151Z,27.42
2022-11-17T03:58:28.517Z,32.92
2022-11-17T04:00:56.719Z,33.95
2022-11-17T04:03:23.755Z,23.77
2022-11-17T04:05:50.551Z,20.40
2022-11-17T04:08:17.306Z,32.72
2022-11-17T04:11:02.649Z,24.88
2022-11-17T04:13:47.923Z,24.90
2022-11-17T04:16:14.771Z,31.23
2022-11-17T04:18:41.552Z,28.40
2022-11-17T04:21:08.258Z,23.52
2022-11-17T04:23:35.206Z,25.05
2022-11-17T04:26:20.785Z,26.15
2022-11-17T04:28:49.929Z,24.13
2022-11-17T04:31:22.675Z,23.88
2022-11-17T04:33:57.798Z,22.58
2022-11-17T04:36:26.614Z,24.90
2022-11-17T04:38:55.792Z,30.20
2022-11-17T04:41:42.688Z,29.98
2022-11-17T04:44:10.978Z,25.58
2022-11-17T04:46:39.248Z,27.90
2022-11-17T04:49:07.408Z,29.10
2022-11-17T04:51:34.879Z,20.77
2022-11-17T04:54:01.800Z,21.90
2022-11-17T04:56:29.439Z,25.77
2022-11-17T04:58:56.689Z,22.25
2022-11-17T05:01:24.327Z,18.88
2022-11-17T05:03:56.292Z,32.35
2022-11-17T05:06:25.523Z,30.35
2022-11-17T05:08:56.092Z,23.20
2022-11-17T05:11:43.336Z,21.80
2022-11-17T05:14:10.564Z,27.05
2022-11-17T05:16:56.199Z,22.48
2022-11-17T05:19:25.116Z,24.35
2022-11-17T05:21:51.939Z,19.15
2022-11-17T05:24:19.174Z,28.10
2022-11-17T05:26:47.831Z,22.23
2022-11-17T05:29:17.293Z,22.65
2022-11-17T05:31:44.527Z,25.88
2022-11-17T05:34:13.029Z,30.20
2022-11-17T05:36:40.300Z,25.35
2022-11-17T05:39:08.117Z,23.30
2022-11-17T05:41:35.194Z,26.30
2022-11-17T05:44:02.113Z,27.25
2022-11-17T05:46:28.871Z,18.77
2022-11-17T05:48:55.705Z,19.45
2022-11-17T05:51:24.387Z,26.30
2022-11-17T05:53:51.360Z,25.08
2022-11-17T05:56:35.844Z,23.77
2022-11-17T05:59:27.457Z,20.65
2022-11-17T06:02:05.130Z,26.73
2022-11-17T06:04:32.954Z,19.25
2022-11-17T06:07:01.070Z,30.20
2022-11-17T06:09:29.943Z,20.58
2022-11-17T06:11:59.764Z,23.30
2022-11-17T06:14:31.082Z,24.23
2022-11-17T06:17:01.538Z,21.80
2022-11-17T06:19:32.230Z,24.25
2022-11-17T06:22:11.564Z,26.83
2022-11-17T06:24:41.268Z,23.50
2022-11-17T06:27:08.065Z,18.17
2022-11-17T06:29:38.185Z,21.95
2022-11-17T06:32:07.744Z,23.65
2022-11-17T06:34:35.088Z,21.80
2022-11-17T06:37:01.900Z,20.15
2022-11-17T06:39:28.651Z,27.13
2022-11-17T06:41:55.626Z,26.45
2022-11-17T06:44:22.342Z,27.27
2022-11-17T06:46:49.480Z,27.88
2022-11-17T06:49:16.269Z,32.08
2022-11-17T06:51:45.301Z,27.85
2022-11-17T06:54:14.836Z,35.60
2022-11-17T06:56:42.177Z,30.48
2022-11-17T06:59:09.034Z,43.97
2022-11-17T07:01:37.414Z,29.52
2022-11-17T07:04:04.404Z,32.35
2022-11-17T07:06:39.498Z,29.00
2022-11-17T07:09:06.480Z,16.85
2022-11-17T07:11:36.285Z,24.65
2022-11-17T07:14:03.505Z,22.48
2022-11-17T07:16:31.213Z,22.23
2022-11-17T07:18:59.416Z,24.67
2022-11-17T07:21:26.481Z,24.33
2022-11-17T07:23:53.642Z,27.42
2022-11-17T07:26:20.453Z,27.95
2022-11-17T07:28:47.334Z,31.55
2022-11-17T07:31:14.225Z,26.98
2022-11-17T07:33:41.060Z,25.05
2022-11-17T07:36:10.355Z,19.75
2022-11-17T07:38:39.146Z,24.77
2022-11-17T07:41:07.453Z,27.98
2022-11-17T07:43:35.054Z,17.40
2022-11-17T07:46:05.834Z,29.02
2022-11-17T07:48:33.475Z,26.02
2022-11-17T07:51:01.327Z,25.10
2022-11-17T07:53:28.963Z,27.13
2022-11-17T07:55:56.070Z,28.98
2022-11-17T07:58:25.521Z,25.42
2022-11-17T08:00:52.398Z,20.73
2022-11-17T08:03:19.359Z,20.90
2022-11-17T08:05:46.257Z,22.98
2022-11-17T08:08:13.782Z,20.20
2022-11-17T08:10:40.885Z,13.85
2022-11-17T08:13:07.813Z,19.08
2022-11-17T08:15:35.132Z,19.25
2022-11-17T08:18:03.306Z,19.45
2022-11-17T08:20:30.271Z,17.40
2022-11-17T08:22:57.265Z,14.63
2022-11-17T08:25:26.362Z,25.10
2022-11-17T08:27:58.030Z,24.20
2022-11-17T08:30:26.118Z,21.95
2022-11-17T08:32:54.027Z,24.25
2022-11-17T08:35:23.335Z,23.23
2022-11-17T08:37:50.249Z,21.27
2022-11-17T08:40:18.384Z,15.70
2022-11-17T08:42:45.695Z,19.65
2022-11-17T08:45:13.544Z,20.30
2022-11-17T08:47:40.543Z,20.27
2022-11-17T08:50:07.906Z,25.83
2022-11-17T08:52:34.743Z,20.42
2022-11-17T08:55:02.587Z,22.00
2022-11-17T08:57:30.660Z,25.50
2022-11-17T08:59:57.874Z,18.60
2022-11-17T09:02:26.264Z,24.63
2022-11-17T09:04:53.182Z,27.10
2022-11-17T09:07:19.992Z,29.85
2022-11-17T09:09:46.813Z,27.40
2022-11-17T09:12:13.694Z,26.17
2022-11-17T09:14:40.829Z,31.90
2022-11-17T09:17:07.889Z,36.58
2022-11-17T09:19:34.904Z,29.08
2022-11-17T09:22:01.743Z,23.58
2022-11-17T09:24:28.567Z,26.58
2022-11-17T09:26:57.466Z,22.20
2022-11-17T09:29:24.359Z,22.35
2022-11-17T09:31:51.161Z,16.08
2022-11-17T09:34:18.180Z,26.05
2022-11-17T09:36:44.999Z,27.73
2022-11-17T09:39:11.901Z,24.08
2022-11-17T09:42:05.067Z,31.13
2022-11-17T09:44:31.900Z,32.17
2022-11-17T09:47:01.556Z,20.63
2022-11-17T09:49:35.021Z,27.15
2022-11-17T09:52:14.016Z,23.85
2022-11-17T09:55:14.467Z,39.90
2022-11-17T09:57:49.038Z,41.60
2022-11-17T10:00:19.706Z,41.53
2022-11-17T10:02:47.258Z,33.38
2022-11-17T10:05:39.131Z,40.38
2022-11-17T10:08:12.698Z,33.08
2022-11-17T10:10:50.498Z,35.88
2022-11-17T10:13:20.137Z,26.80
2022-11-17T10:15:49.881Z,32.53
2022-11-17T10:18:17.014Z,35.05
2022-11-17T10:20:44.951Z,35.20
2022-11-17T10:23:19.052Z,22.67
2022-11-17T10:25:48.365Z,30.05
2022-11-17T10:28:32.788Z,26.40
2022-11-17T10:31:05.358Z,32.03
2022-11-17T10:33:44.286Z,26.35
2022-11-17T10:36:31.636Z,28.85
2022-11-17T10:39:00.109Z,29.60
2022-11-17T10:41:26.870Z,33.80
2022-11-17T10:44:07.657Z,32.80
2022-11-17T10:47:01.987Z,39.83
2022-11-17T10:49:38.522Z,37.75
2022-11-17T10:52:11.103Z,35.85
2022-11-17T10:54:38.611Z,37.83
2022-11-17T10:57:13.900Z,35.13
2022-11-17T10:59:56.430Z,35.05
2022-11-17T11:02:34.188Z,25.15
2022-11-17T11:05:16.371Z,27.58
2022-11-17T11:07:43.577Z,29.88
2022-11-17T11:10:32.860Z,26.40
2022-11-17T11:13:11.852Z,32.08
2022-11-17T11:15:38.959Z,39.42
2022-11-17T11:18:14.378Z,27.58
2022-11-17T11:21:12.595Z,28.23
2022-11-17T11:23:51.524Z,23.10
2022-11-17T11:26:40.200Z,29.58
2022-11-17T11:29:28.826Z,33.78
2022-11-17T11:32:05.683Z,28.27
2022-11-17T11:35:03.986Z,25.95
2022-11-17T11:37:39.141Z,18.85
2022-11-17T11:40:28.500Z,26.38
2022-11-17T11:43:32.819Z,29.92
2022-11-17T11:46:06.308Z,33.03
2022-11-17T11:48:34.357Z,34.42
2022-11-17T11:51:11.151Z,26.48
2022-11-17T11:53:44.077Z,31.55
2022-11-17T11:56:23.103Z,34.53
2022-11-17T11:59:12.987Z,27.00
2022-11-17T12:01:48.325Z,32.92
2022-11-17T12:04:44.099Z,24.88
2022-11-17T12:07:31.201Z,27.60
2022-11-17T12:10:34.535Z,26.58
2022-11-17T12:13:02.197Z,27.25
2022-11-17T12:15:29.072Z,27.02
2022-11-17T12:18:00.309Z,27.27
2022-11-17T12:20:51.105Z,28.38
2022-11-17T12:23:23.572Z,27.60
2022-11-17T12:25:54.504Z,20.30
2022-11-17T12:31:09.412Z,27.98
2022-11-17T12:33:51.905Z,23.23
2022-11-17T12:36:30.180Z,31.85
2022-11-17T12:38:59.463Z,23.15
2022-11-17T12:41:54.506Z,25.98
2022-11-17T12:44:34.120Z,24.02
2022-11-17T12:47:25.254Z,29.85
2022-11-17T12:52:43.742Z,33.90
2022-11-17T12:55:31.093Z,35.00
2022-11-17T12:58:16.840Z,23.63
2022-11-17T13:00:57.152Z,22.73
2022-11-17T13:03:36.109Z,26.52
2022-11-17T13:06:33.861Z,28.98
2022-11-17T13:11:25.172Z,29.02
2022-11-17T13:14:13.458Z,38.50
2022-11-17T13:16:49.708Z,38.53
2022-11-17T13:19:36.202Z,26.80
2022-11-17T13:22:05.716Z,26.10
2022-11-17T13:24:37.771Z,24.27
2022-11-17T13:27:07.541Z,25.77
2022-11-17T13:29:34.619Z,23.58
2022-11-17T13:32:16.593Z,24.38
2022-11-17T13:35:01.172Z,30.27
2022-11-17T13:37:29.749Z,27.40
2022-11-17T13:39:57.359Z,34.83
2022-11-17T13:42:26.629Z,30.23
2022-11-17T13:44:54.997Z,33.72
2022-11-17T13:47:27.798Z,30.25
2022-11-17T13:49:54.726Z,33.20
2022-11-17T13:52:37.026Z,24.73
2022-11-17T13:55:17.759Z,28.35
2022-11-17T13:57:55.376Z,26.20
2022-11-17T14:00:22.981Z,28.52
2022-11-17T14:02:58.597Z,26.20
2022-11-17T14:05:27.545Z,29.98
2022-11-17T14:07:57.205Z,26.33
2022-11-17T14:10:29.724Z,23.80
2022-11-17T14:13:02.458Z,36.03
2022-11-17T14:15:32.012Z,35.65
2022-11-17T14:18:05.721Z,32.97
2022-11-17T14:20:35.483Z,40.70
2022-11-17T14:23:08.715Z,23.02
2022-11-17T14:25:38.848Z,31.05
2022-11-17T14:28:13.556Z,31.93
2022-11-17T14:30:40.363Z,26.30
2022-11-17T14:33:13.213Z,24.63
2022-11-17T14:35:40.848Z,41.58
2022-11-17T14:38:10.294Z,28.23
2022-11-17T14:40:37.243Z,34.35
2022-11-17T14:43:04.245Z,33.40
2022-11-17T14:45:35.402Z,31.35
2022-11-17T14:48:02.852Z,18.73
2022-11-17T14:50:29.831Z,26.17
2022-11-17T14:52:56.826Z,27.20
2022-11-17T14:55:25.235Z,25.55
2022-11-17T14:57:52.327Z,28.23
2022-11-17T15:00:20.696Z,35.55
2022-11-17T15:02:48.346Z,35.50
2022-11-17T15:05:16.111Z,35.63
2022-11-17T15:07:43.530Z,32.17
2022-11-17T15:10:10.655Z,34.75
2022-11-17T15:12:37.653Z,37.20
2022-11-17T15:15:05.196Z,32.20
2022-11-17T15:17:32.267Z,30.73
2022-11-17T15:19:59.160Z,32.47
2022-11-17T15:22:26.096Z,33.10
2022-11-17T15:24:52.952Z,36.35
2022-11-17T15:27:19.866Z,37.75
2022-11-17T15:29:46.739Z,40.42
2022-11-17T15:32:13.649Z,30.63
2022-11-17T15:34:40.651Z,29.33
2022-11-17T15:37:07.518Z,31.55
2022-11-17T15:39:34.320Z,32.50
2022-11-17T15:42:01.209Z,23.67
2022-11-17T15:44:28.968Z,29.27
2022-11-17T15:46:55.778Z,24.05
2022-11-17T15:49:23.008Z,34.53
2022-11-17T15:51:49.830Z,24.55
2022-11-17T15:54:20.290Z,24.55
2022-11-17T15:56:48.180Z,26.25
2022-11-17T15:59:15.291Z,30.90
2022-11-17T16:01:42.585Z,31.98
2022-11-17T16:04:11.348Z,29.95
2022-11-17T16:06:40.288Z,33.60
2022-11-17T16:09:08.239Z,24.10
2022-11-17T16:11:35.884Z,25.55
2022-11-17T16:14:03.210Z,31.40
2022-11-17T16:16:35.973Z,32.70
2022-11-17T16:19:04.207Z,20.95
2022-11-17T16:21:31.085Z,22.13
2022-11-17T16:24:00.759Z,15.73
2022-11-17T16:26:28.607Z,23.33
2022-11-17T16:28:57.290Z,22.90
2022-11-17T16:31:26.193Z,18.52
2022-11-17T16:33:57.097Z,22.05
2022-11-17T16:36:31.364Z,26.65
2022-11-17T16:39:02.830Z,25.80
2022-11-17T16:41:33.403Z,25.15
2022-11-17T16:44:00.936Z,30.33
2022-11-17T16:46:32.176Z,24.20
2022-11-17T16:49:03.792Z,30.35
2022-11-17T16:51:31.549Z,28.58
2022-11-17T16:54:00.889Z,23.08
2022-11-17T16:56:28.024Z,17.15
2022-11-17T16:58:55.046Z,18.10
2022-11-17T17:01:24.247Z,26.08
2022-11-17T17:03:58.994Z,30.90
2022-11-17T17:06:26.385Z,31.48
2022-11-17T17:08:58.080Z,23.15
2022-11-17T17:11:25.857Z,25.30
2022-11-17T17:13:52.776Z,25.80
2022-11-17T17:16:20.264Z,22.48
2022-11-17T17:18:47.099Z,25.77
2022-11-17T17:21:16.360Z,23.50
2022-11-17T17:23:43.493Z,23.73
2022-11-17T17:26:14.197Z,31.60
2022-11-17T17:28:43.812Z,25.95
2022-11-17T17:31:12.701Z,26.85
2022-11-17T17:33:42.530Z,17.38
2022-11-17T17:36:15.244Z,22.20
2022-11-17T17:38:42.487Z,17.40
2022-11-17T17:41:11.796Z,25.50
2022-11-17T17:43:39.370Z,18.15
2022-11-17T17:46:14.316Z,22.17
2022-11-17T17:48:44.673Z,21.75
2022-11-17T17:51:14.284Z,20.88
2022-11-17T17:53:41.533Z,18.70
2022-11-17T17:56:13.234Z,22.35
2022-11-17T17:58:41.270Z,22.88
2022-11-17T18:01:11.887Z,25.63
2022-11-17T18:03:39.908Z,27.58
2022-11-17T18:06:07.825Z,22.10
2022-11-17T18:08:35.906Z,22.35
2022-11-17T18:11:06.411Z,23.83
2022-11-17T18:13:35.763Z,18.25
2022-11-17T18:16:05.041Z,17.70
2022-11-17T18:18:33.195Z,18.10
2022-11-17T18:21:02.671Z,20.15
2022-11-17T18:23:30.540Z,16.33
2022-11-17T18:26:08.487Z,20.50
2022-11-17T18:28:35.405Z,28.55
2022-11-17T18:31:03.590Z,18.05
2022-11-17T18:33:31.024Z,27.42
2022-11-17T18:36:02.675Z,21.27
2022-11-17T18:38:30.697Z,33.40
2022-11-17T18:41:10.578Z,26.30
2022-11-17T18:43:38.309Z,24.77
2022-11-17T18:46:08.034Z,18.10
2022-11-17T18:48:37.623Z,26.77
2022-11-17T18:51:22.540Z,32.92
2022-11-17T18:53:50.746Z,21.33
2022-11-17T18:56:20.552Z,28.33
2022-11-17T18:58:47.511Z,28.08
2022-11-17T19:01:18.765Z,18.10
2022-11-17T19:03:47.821Z,23.02
2022-11-17T19:06:16.452Z,24.73
2022-11-17T19:08:43.597Z,21.92
2022-11-17T19:11:11.793Z,16.98
2022-11-17T19:13:39.802Z,20.52
2022-11-17T19:16:22.053Z,19.75
2022-11-17T19:18:50.617Z,23.83
2022-11-17T19:21:28.541Z,29.65
2022-11-17T19:23:58.507Z,21.23
2022-11-17T19:26:33.858Z,25.27
2022-11-17T19:29:03.500Z,33.65
2022-11-17T19:31:31.407Z,25.80
2022-11-17T19:33:59.204Z,23.40
2022-11-17T19:36:29.355Z,23.15
2022-11-17T19:38:58.093Z,26.93
2022-11-17T19:41:37.113Z,25.00
2022-11-17T19:44:06.989Z,22.40
2022-11-17T19:46:36.681Z,20.90
2022-11-17T19:49:04.782Z,19.33
2022-11-17T19:51:34.445Z,27.60
2022-11-17T19:54:02.948Z,21.35
2022-11-17T19:56:30.000Z,17.23
2022-11-17T19:58:57.014Z,24.98
2022-11-17T20:01:28.638Z,22.67
2022-11-17T20:03:56.942Z,21.85
2022-11-17T20:06:27.460Z,25.13
2022-11-17T20:08:56.507Z,29.23
2022-11-17T20:11:25.879Z,19.02
2022-11-17T20:13:54.302Z,24.13
2022-11-17T20:16:27.340Z,28.17
2022-11-17T20:18:57.099Z,25.77
2022-11-17T20:21:24.972Z,29.05
2022-11-17T20:23:52.198Z,21.73
2022-11-17T20:26:24.375Z,28.77
2022-11-17T20:28:51.698Z,19.98
2022-11-17T20:31:21.433Z,22.63
2022-11-17T20:33:48.980Z,20.42
2022-11-17T20:36:17.860Z,24.45
2022-11-17T20:38:45.511Z,17.10
2022-11-17T20:41:12.767Z,16.90
2022-11-17T20:43:39.580Z,23.92
2022-11-17T20:46:06.663Z,14.68
2022-11-17T20:48:35.443Z,17.00
2022-11-17T20:51:05.484Z,22.83
2022-11-17T20:53:33.266Z,18.10
2022-11-17T20:56:02.164Z,28.63
2022-11-17T20:58:30.087Z,25.33
2022-11-17T21:00:57.325Z,22.15
2022-11-17T21:03:27.194Z,24.88
2022-11-17T21:05:59.371Z,22.92
2022-11-17T21:08:28.808Z,24.30
2022-11-17T21:10:56.817Z,24.80
2022-11-17T21:13:24.378Z,21.42
2022-11-17T21:16:09.824Z,28.88
2022-11-17T21:18:38.399Z,16.17
2022-11-17T21:21:09.189Z,27.10
2022-11-17T21:26:08.453Z,27.38
2022-11-17T21:28:36.983Z,24.52
2022-11-17T21:31:09.627Z,29.20
2022-11-17T21:33:37.114Z,20.35
2022-11-17T21:36:17.325Z,17.02
2022-11-17T21:38:45.316Z,18.38
2022-11-17T21:41:15.005Z,24.30
2022-11-17T21:43:44.131Z,25.50
2022-11-17T21:46:14.119Z,16.77
2022-11-17T21:48:41.673Z,29.53
2022-11-17T21:51:15.989Z,30.67
2022-11-17T21:53:43.189Z,19.08
2022-11-17T21:56:10.329Z,27.95
2022-11-17T21:58:38.216Z,19.55
2022-11-17T22:01:10.425Z,19.85
2022-11-17T22:03:38.327Z,19.52
2022-11-17T22:06:10.815Z,22.50
2022-11-17T22:08:39.104Z,16.83
2022-11-17T22:11:08.447Z,16.17
2022-11-17T22:13:35.459Z,16.95
2022-11-17T22:16:08.525Z,22.58
2022-11-17T22:18:35.590Z,26.75
2022-11-17T22:21:02.794Z,24.27
2022-11-17T22:23:30.705Z,22.77
2022-11-17T22:25:59.796Z,22.10
2022-11-17T22:28:27.364Z,23.52
2022-11-17T22:30:54.676Z,16.45
2022-11-17T22:33:22.373Z,23.38
2022-11-17T22:35:50.035Z,25.67
2022-11-17T22:38:17.871Z,26.05
2022-11-17T22:40:45.058Z,26.55
2022-11-17T22:43:15.244Z,22.23
2022-11-17T22:45:42.661Z,19.35
2022-11-17T22:48:09.504Z,19.17
2022-11-17T22:50:36.636Z,20.98
2022-11-17T22:53:03.594Z,13.27
2022-11-17T22:55:33.484Z,27.50
2022-11-17T22:58:00.751Z,23.52
2022-11-17T23:00:28.090Z,23.05
2022-11-17T23:02:55.136Z,27.45
2022-11-17T23:05:22.100Z,22.08
2022-11-17T23:07:48.938Z,22.58
2022-11-17T23:10:15.932Z,18.33
2022-11-17T23:12:42.817Z,23.65
2022-11-17T23:15:10.036Z,21.77
2022-11-17T23:17:37.397Z,26.92
2022-11-17T23:20:04.624Z,28.92
2022-11-17T23:22:31.649Z,29.50
2022-11-17T23:24:58.462Z,24.45
2022-11-17T23:27:25.412Z,19.58
2022-11-17T23:29:52.204Z,25.02
2022-11-17T23:32:19.247Z,23.10
2022-11-17T23:34:46.269Z,29.50
2022-11-17T23:37:13.137Z,25.25
2022-11-17T23:39:39.979Z,19.90
2022-11-17T23:42:06.920Z,17.17
2022-11-17T23:44:33.734Z,21.42
2022-11-17T23:47:00.583Z,28.15
2022-11-17T23:49:27.472Z,29.65
2022-11-17T23:51:54.341Z,23.35
2022-11-17T23:54:21.602Z,17.63
2022-11-17T23:56:53.093Z,20.80
2022-11-17T23:59:22.774Z,22.83
